sensor_id;sensor_type;location;lat;lon;timestamp;pressure;altitude;pressure_sealevel;temperature;humidity
65131;BME280;51709;54.912;8.316;2022-11-09T00:03:55;100130.84;;;12.56;80.01
65131;BME280;51709;54.912;8.316;2022-11-09T00:09:16;100130.16;;;12.53;80.00
65131;BME280;51709;54.912;8.316;2022-11-09T00:14:36;100151.72;;;12.50;80.27
65131;BME280;51709;54.912;8.316;2022-11-09T00:19:58;100139.03;;;12.45;80.12
65131;BME280;51709;54.912;8.316;2022-11-09T00:25:18;100136.56;;;12.42;79.83
65131;BME280;51709;54.912;8.316;2022-11-09T00:30:39;100137.47;;;12.41;79.82
65131;BME280;51709;54.912;8.316;2022-11-09T00:36:10;100141.13;;;12.36;79.84
65131;BME280;51709;54.912;8.316;2022-11-09T00:41:32;100135.00;;;12.38;79.70
65131;BME280;51709;54.912;8.316;2022-11-09T00:46:53;100142.81;;;12.37;79.85
65131;BME280;51709;54.912;8.316;2022-11-09T00:52:13;100142.09;;;12.33;79.74
65131;BME280;51709;54.912;8.316;2022-11-09T00:57:34;100137.78;;;12.33;79.70
65131;BME280;51709;54.912;8.316;2022-11-09T01:02:55;100155.16;;;12.28;79.71
65131;BME280;51709;54.912;8.316;2022-11-09T01:08:18;100156.16;;;12.24;79.75
65131;BME280;51709;54.912;8.316;2022-11-09T01:13:39;100153.69;;;12.21;79.67
65131;BME280;51709;54.912;8.316;2022-11-09T01:19:00;100153.97;;;12.13;80.04
65131;BME280;51709;54.912;8.316;2022-11-09T01:24:21;100157.78;;;12.05;80.47
65131;BME280;51709;54.912;8.316;2022-11-09T01:29:41;100153.63;;;12.00;80.77
65131;BME280;51709;54.912;8.316;2022-11-09T01:35:02;100152.09;;;11.95;80.81
65131;BME280;51709;54.912;8.316;2022-11-09T01:40:23;100150.59;;;11.89;80.93
65131;BME280;51709;54.912;8.316;2022-11-09T01:45:49;100144.66;;;11.87;81.15
65131;BME280;51709;54.912;8.316;2022-11-09T01:51:18;100141.09;;;11.91;81.26
65131;BME280;51709;54.912;8.316;2022-11-09T01:56:44;100131.63;;;11.92;81.27
65131;BME280;51709;54.912;8.316;2022-11-09T02:02:08;100135.06;;;11.92;81.15
65131;BME280;51709;54.912;8.316;2022-11-09T02:07:33;100122.19;;;11.92;81.32
65131;BME280;51709;54.912;8.316;2022-11-09T02:12:55;100120.56;;;11.90;81.44
65131;BME280;51709;54.912;8.316;2022-11-09T02:18:18;100130.81;;;11.91;81.35
65131;BME280;51709;54.912;8.316;2022-11-09T02:23:39;100126.59;;;11.88;81.33
65131;BME280;51709;54.912;8.316;2022-11-09T02:29:02;100116.38;;;11.87;81.61
65131;BME280;51709;54.912;8.316;2022-11-09T02:34:25;100113.91;;;11.84;81.56
65131;BME280;51709;54.912;8.316;2022-11-09T02:39:47;100115.78;;;11.80;81.74
65131;BME280;51709;54.912;8.316;2022-11-09T02:45:10;100109.84;;;11.78;81.77
65131;BME280;51709;54.912;8.316;2022-11-09T02:50:33;100110.72;;;11.79;81.84
65131;BME280;51709;54.912;8.316;2022-11-09T02:55:58;100100.28;;;11.82;81.61
65131;BME280;51709;54.912;8.316;2022-11-09T03:01:18;100105.56;;;11.79;81.92
65131;BME280;51709;54.912;8.316;2022-11-09T03:06:39;100116.66;;;11.79;82.17
65131;BME280;51709;54.912;8.316;2022-11-09T03:12:05;100126.91;;;11.81;82.04
65131;BME280;51709;54.912;8.316;2022-11-09T03:17:47;100107.16;;;11.81;82.21
65131;BME280;51709;54.912;8.316;2022-11-09T03:23:11;100107.16;;;11.81;82.31
65131;BME280;51709;54.912;8.316;2022-11-09T03:28:33;100100.28;;;11.82;82.41
65131;BME280;51709;54.912;8.316;2022-11-09T03:33:54;100117.53;;;11.80;82.55
65131;BME280;51709;54.912;8.316;2022-11-09T03:39:15;100121.88;;;11.78;82.66
65131;BME280;51709;54.912;8.316;2022-11-09T03:44:35;100116.84;;;11.75;82.78
65131;BME280;51709;54.912;8.316;2022-11-09T03:49:56;100123.66;;;11.76;82.63
65131;BME280;51709;54.912;8.316;2022-11-09T03:55:17;100121.09;;;11.76;82.78
65131;BME280;51709;54.912;8.316;2022-11-09T04:00:38;100117.81;;;11.72;83.09
65131;BME280;51709;54.912;8.316;2022-11-09T04:05:59;100115.94;;;11.76;82.85
65131;BME280;51709;54.912;8.316;2022-11-09T04:11:19;100125.16;;;11.81;82.76
65131;BME280;51709;54.912;8.316;2022-11-09T04:16:40;100109.75;;;11.81;82.96
65131;BME280;51709;54.912;8.316;2022-11-09T04:22:01;100102.03;;;11.81;82.87
65131;BME280;51709;54.912;8.316;2022-11-09T04:27:22;100125.00;;;11.86;82.81
65131;BME280;51709;54.912;8.316;2022-11-09T04:32:42;100112.84;;;11.90;82.99
65131;BME280;51709;54.912;8.316;2022-11-09T04:38:05;100113.63;;;11.92;82.83
65131;BME280;51709;54.912;8.316;2022-11-09T04:43:26;100115.84;;;12.02;82.74
65131;BME280;51709;54.912;8.316;2022-11-09T04:48:47;100111.28;;;12.09;82.72
65131;BME280;51709;54.912;8.316;2022-11-09T04:54:09;100109.72;;;12.05;82.64
65131;BME280;51709;54.912;8.316;2022-11-09T04:59:30;100110.81;;;11.99;82.98
65131;BME280;51709;54.912;8.316;2022-11-09T05:04:50;100110.88;;;11.96;82.89
65131;BME280;51709;54.912;8.316;2022-11-09T05:10:11;100132.34;;;11.95;82.81
65131;BME280;51709;54.912;8.316;2022-11-09T05:15:32;100129.03;;;11.93;82.93
65131;BME280;51709;54.912;8.316;2022-11-09T05:20:57;100127.16;;;11.97;82.79
65131;BME280;51709;54.912;8.316;2022-11-09T05:26:18;100138.19;;;12.00;82.84
65131;BME280;51709;54.912;8.316;2022-11-09T05:31:39;100133.94;;;11.99;82.94
65131;BME280;51709;54.912;8.316;2022-11-09T05:37:01;100134.84;;;11.98;82.96
65131;BME280;51709;54.912;8.316;2022-11-09T05:42:23;100160.56;;;11.98;83.05
65131;BME280;51709;54.912;8.316;2022-11-09T05:47:44;100152.72;;;12.01;82.80
65131;BME280;51709;54.912;8.316;2022-11-09T05:53:04;100150.06;;;12.05;83.03
65131;BME280;51709;54.912;8.316;2022-11-09T05:58:25;100136.22;;;12.07;83.05
65131;BME280;51709;54.912;8.316;2022-11-09T06:03:45;100155.84;;;12.10;82.88
65131;BME280;51709;54.912;8.316;2022-11-09T06:09:07;100160.91;;;12.11;82.88
65131;BME280;51709;54.912;8.316;2022-11-09T06:14:27;100158.34;;;12.11;83.02
65131;BME280;51709;54.912;8.316;2022-11-09T06:19:48;100174.44;;;12.16;82.87
65131;BME280;51709;54.912;8.316;2022-11-09T06:25:08;100171.50;;;12.26;82.52
65131;BME280;51709;54.912;8.316;2022-11-09T06:30:29;100167.94;;;12.30;82.51
65131;BME280;51709;54.912;8.316;2022-11-09T06:35:50;100172.06;;;12.34;82.53
65131;BME280;51709;54.912;8.316;2022-11-09T06:41:16;100176.28;;;12.35;82.47
65131;BME280;51709;54.912;8.316;2022-11-09T06:46:37;100181.44;;;12.35;82.35
65131;BME280;51709;54.912;8.316;2022-11-09T06:51:58;100198.44;;;12.39;82.39
65131;BME280;51709;54.912;8.316;2022-11-09T06:57:19;100183.00;;;12.39;81.89
65131;BME280;51709;54.912;8.316;2022-11-09T07:02:41;100201.88;;;12.40;81.75
65131;BME280;51709;54.912;8.316;2022-11-09T07:08:01;100194.97;;;12.40;81.60
65131;BME280;51709;54.912;8.316;2022-11-09T07:13:22;100204.44;;;12.40;81.52
65131;BME280;51709;54.912;8.316;2022-11-09T07:18:44;100184.69;;;12.40;81.61
65131;BME280;51709;54.912;8.316;2022-11-09T07:24:05;100191.41;;;12.44;81.23
65131;BME280;51709;54.912;8.316;2022-11-09T07:29:25;100202.47;;;12.46;81.25
65131;BME280;51709;54.912;8.316;2022-11-09T07:34:46;100206.88;;;12.43;81.43
65131;BME280;51709;54.912;8.316;2022-11-09T07:40:07;100197.44;;;12.43;81.14
65131;BME280;51709;54.912;8.316;2022-11-09T07:45:29;100210.00;;;12.51;80.88
65131;BME280;51709;54.912;8.316;2022-11-09T07:50:50;100209.38;;;12.67;80.57
65131;BME280;51709;54.912;8.316;2022-11-09T07:56:10;100211.09;;;12.88;80.01
65131;BME280;51709;54.912;8.316;2022-11-09T08:01:31;100228.09;;;12.92;79.64
65131;BME280;51709;54.912;8.316;2022-11-09T08:06:52;100214.41;;;12.92;79.81
65131;BME280;51709;54.912;8.316;2022-11-09T08:12:13;100198.47;;;13.03;79.61
65131;BME280;51709;54.912;8.316;2022-11-09T08:17:34;100228.22;;;12.89;79.77
65131;BME280;51709;54.912;8.316;2022-11-09T08:22:54;100222.75;;;12.76;79.99
65131;BME280;51709;54.912;8.316;2022-11-09T08:28:21;100231.44;;;12.74;79.94
65131;BME280;51709;54.912;8.316;2022-11-09T08:33:43;100225.44;;;12.73;79.76
65131;BME280;51709;54.912;8.316;2022-11-09T08:39:04;100232.78;;;12.83;79.42
65131;BME280;51709;54.912;8.316;2022-11-09T08:44:24;100240.66;;;12.79;79.49
65131;BME280;51709;54.912;8.316;2022-11-09T08:49:45;100240.28;;;12.89;79.33
65131;BME280;51709;54.912;8.316;2022-11-09T08:55:07;100247.72;;;12.95;79.25
65131;BME280;51709;54.912;8.316;2022-11-09T09:00:29;100247.53;;;13.00;78.96
65131;BME280;51709;54.912;8.316;2022-11-09T09:13:15;100260.66;;;13.16;78.46
65131;BME280;51709;54.912;8.316;2022-11-09T09:18:35;100275.06;;;13.20;78.36
65131;BME280;51709;54.912;8.316;2022-11-09T09:23:56;100287.53;;;13.31;78.23
65131;BME280;51709;54.912;8.316;2022-11-09T09:29:17;100279.53;;;13.37;78.18
65131;BME280;51709;54.912;8.316;2022-11-09T09:34:37;100297.47;;;13.61;77.32
65131;BME280;51709;54.912;8.316;2022-11-09T09:39:58;100284.72;;;13.78;77.00
65131;BME280;51709;54.912;8.316;2022-11-09T09:45:26;100283.44;;;13.68;76.92
65131;BME280;51709;54.912;8.316;2022-11-09T09:50:50;100292.72;;;13.51;77.39
65131;BME280;51709;54.912;8.316;2022-11-09T09:56:24;100299.09;;;13.63;77.16
65131;BME280;51709;54.912;8.316;2022-11-09T10:01:47;100314.31;;;15.40;72.14
65131;BME280;51709;54.912;8.316;2022-11-09T10:19:23;100334.25;;;14.06;75.73
65131;BME280;51709;54.912;8.316;2022-11-09T10:30:33;100327.28;;;13.68;76.59
65131;BME280;51709;54.912;8.316;2022-11-09T10:41:36;100323.03;;;14.07;75.46
65131;BME280;51709;54.912;8.316;2022-11-09T10:47:18;100325.28;;;14.14;75.05
65131;BME280;51709;54.912;8.316;2022-11-09T10:53:25;100316.84;;;14.68;73.69
65131;BME280;51709;54.912;8.316;2022-11-09T10:59:38;100320.03;;;15.80;70.83
65131;BME280;51709;54.912;8.316;2022-11-09T11:17:26;100341.16;;;17.34;67.19
65131;BME280;51709;54.912;8.316;2022-11-09T11:23:18;100333.63;;;16.83;68.87
65131;BME280;51709;54.912;8.316;2022-11-09T11:29:00;100336.13;;;16.85;68.67
65131;BME280;51709;54.912;8.316;2022-11-09T11:34:42;100340.00;;;15.61;72.17
65131;BME280;51709;54.912;8.316;2022-11-09T11:40:44;100355.59;;;14.87;73.83
65131;BME280;51709;54.912;8.316;2022-11-09T11:46:45;100362.91;;;14.77;73.38
65131;BME280;51709;54.912;8.316;2022-11-09T11:52:55;100354.69;;;14.69;72.79
65131;BME280;51709;54.912;8.316;2022-11-09T11:58:59;100362.25;;;14.34;73.69
65131;BME280;51709;54.912;8.316;2022-11-09T12:05:05;100351.16;;;13.92;74.51
65131;BME280;51709;54.912;8.316;2022-11-09T12:11:03;100364.06;;;13.71;74.78
65131;BME280;51709;54.912;8.316;2022-11-09T12:16:51;100363.41;;;13.66;74.66
65131;BME280;51709;54.912;8.316;2022-11-09T12:22:47;100376.25;;;13.68;74.36
65131;BME280;51709;54.912;8.316;2022-11-09T12:34:32;100354.72;;;13.90;74.05
65131;BME280;51709;54.912;8.316;2022-11-09T12:40:28;100355.13;;;13.99;73.74
65131;BME280;51709;54.912;8.316;2022-11-09T12:46:10;100366.66;;;13.71;74.66
65131;BME280;51709;54.912;8.316;2022-11-09T12:51:49;100371.09;;;13.68;74.86
65131;BME280;51709;54.912;8.316;2022-11-09T12:57:34;100371.41;;;13.81;74.39
65131;BME280;51709;54.912;8.316;2022-11-09T13:03:26;100362.19;;;13.75;74.84
65131;BME280;51709;54.912;8.316;2022-11-09T13:09:26;100378.44;;;13.98;73.91
65131;BME280;51709;54.912;8.316;2022-11-09T13:15:25;100379.19;;;13.59;75.12
65131;BME280;51709;54.912;8.316;2022-11-09T13:27:04;100382.03;;;13.94;74.14
65131;BME280;51709;54.912;8.316;2022-11-09T13:39:22;100365.78;;;13.71;74.81
65131;BME280;51709;54.912;8.316;2022-11-09T13:51:14;100363.53;;;13.20;76.36
65131;BME280;51709;54.912;8.316;2022-11-09T13:56:55;100362.25;;;13.08;76.51
65131;BME280;51709;54.912;8.316;2022-11-09T14:02:35;100365.75;;;12.85;76.76
65131;BME280;51709;54.912;8.316;2022-11-09T14:08:23;100355.13;;;12.71;77.42
65131;BME280;51709;54.912;8.316;2022-11-09T14:20:15;100389.59;;;12.43;78.22
65131;BME280;51709;54.912;8.316;2022-11-09T14:26:08;100370.19;;;12.10;78.68
65131;BME280;51709;54.912;8.316;2022-11-09T14:31:48;100381.16;;;11.88;79.16
65131;BME280;51709;54.912;8.316;2022-11-09T14:37:28;100387.47;;;11.80;79.32
65131;BME280;51709;54.912;8.316;2022-11-09T14:43:36;100391.50;;;11.87;79.13
65131;BME280;51709;54.912;8.316;2022-11-09T14:49:17;100366.50;;;11.65;79.52
65131;BME280;51709;54.912;8.316;2022-11-09T14:55:00;100373.94;;;11.21;80.95
65131;BME280;51709;54.912;8.316;2022-11-09T15:00:39;100378.72;;;11.05;81.66
65131;BME280;51709;54.912;8.316;2022-11-09T15:06:24;100373.09;;;10.92;82.34
65131;BME280;51709;54.912;8.316;2022-11-09T15:12:12;100376.28;;;10.70;83.10
65131;BME280;51709;54.912;8.316;2022-11-09T15:17:52;100390.53;;;10.51;83.56
65131;BME280;51709;54.912;8.316;2022-11-09T15:23:38;100387.13;;;10.17;84.30
65131;BME280;51709;54.912;8.316;2022-11-09T15:35:16;100394.47;;;9.98;84.87
65131;BME280;51709;54.912;8.316;2022-11-09T15:40:56;100407.03;;;10.07;84.69
65131;BME280;51709;54.912;8.316;2022-11-09T15:46:43;100411.47;;;10.02;84.67
65131;BME280;51709;54.912;8.316;2022-11-09T15:52:24;100403.91;;;9.96;84.77
65131;BME280;51709;54.912;8.316;2022-11-09T15:58:05;100399.09;;;9.83;85.19
65131;BME280;51709;54.912;8.316;2022-11-09T16:03:44;100399.81;;;9.89;85.16
65131;BME280;51709;54.912;8.316;2022-11-09T16:09:23;100400.34;;;10.01;84.85
65131;BME280;51709;54.912;8.316;2022-11-09T16:15:03;100403.44;;;10.14;84.76
65131;BME280;51709;54.912;8.316;2022-11-09T16:20:42;100407.53;;;10.22;84.49
65131;BME280;51709;54.912;8.316;2022-11-09T16:26:22;100411.50;;;10.32;84.72
65131;BME280;51709;54.912;8.316;2022-11-09T16:32:01;100408.00;;;10.36;84.79
65131;BME280;51709;54.912;8.316;2022-11-09T16:37:40;100411.22;;;10.44;84.70
65131;BME280;51709;54.912;8.316;2022-11-09T16:43:20;100412.28;;;10.36;84.99
65131;BME280;51709;54.912;8.316;2022-11-09T16:49:00;100422.66;;;10.31;85.34
65131;BME280;51709;54.912;8.316;2022-11-09T16:54:41;100442.41;;;10.27;85.37
65131;BME280;51709;54.912;8.316;2022-11-09T17:00:20;100443.31;;;10.26;85.47
65131;BME280;51709;54.912;8.316;2022-11-09T17:06:15;100450.88;;;10.31;85.43
65131;BME280;51709;54.912;8.316;2022-11-09T17:11:55;100451.56;;;10.39;85.04
65131;BME280;51709;54.912;8.316;2022-11-09T17:17:34;100462.41;;;10.49;84.75
65131;BME280;51709;54.912;8.316;2022-11-09T17:23:16;100464.22;;;10.45;84.89
65131;BME280;51709;54.912;8.316;2022-11-09T17:28:56;100476.97;;;10.48;84.90
65131;BME280;51709;54.912;8.316;2022-11-09T17:34:35;100476.09;;;10.48;84.70
65131;BME280;51709;54.912;8.316;2022-11-09T17:40:15;100482.25;;;10.42;84.95
65131;BME280;51709;54.912;8.316;2022-11-09T17:45:55;100493.31;;;10.44;84.96
65131;BME280;51709;54.912;8.316;2022-11-09T17:51:34;100499.06;;;10.53;84.69
65131;BME280;51709;54.912;8.316;2022-11-09T17:57:13;100516.00;;;10.60;84.50
65131;BME280;51709;54.912;8.316;2022-11-09T18:02:54;100510.56;;;10.71;84.33
65131;BME280;51709;54.912;8.316;2022-11-09T18:08:33;100529.09;;;10.82;84.01
65131;BME280;51709;54.912;8.316;2022-11-09T18:14:12;100543.06;;;10.37;84.57
65131;BME280;51709;54.912;8.316;2022-11-09T18:19:51;100543.91;;;10.01;85.29
65131;BME280;51709;54.912;8.316;2022-11-09T18:25:30;100547.28;;;10.03;85.25
65131;BME280;51709;54.912;8.316;2022-11-09T18:31:11;100540.59;;;9.98;85.22
65131;BME280;51709;54.912;8.316;2022-11-09T18:36:51;100555.16;;;9.96;85.06
65131;BME280;51709;54.912;8.316;2022-11-09T18:42:32;100557.00;;;9.89;85.26
65131;BME280;51709;54.912;8.316;2022-11-09T18:48:11;100557.00;;;9.89;85.21
65131;BME280;51709;54.912;8.316;2022-11-09T18:53:50;100569.66;;;9.97;84.71
65131;BME280;51709;54.912;8.316;2022-11-09T18:59:29;100571.13;;;10.07;84.38
65131;BME280;51709;54.912;8.316;2022-11-09T19:05:09;100579.34;;;10.22;83.94
65131;BME280;51709;54.912;8.316;2022-11-09T19:10:49;100584.19;;;10.34;83.57
65131;BME280;51709;54.912;8.316;2022-11-09T19:16:28;100599.34;;;10.45;83.06
65131;BME280;51709;54.912;8.316;2022-11-09T19:22:14;100593.06;;;10.57;82.93
65131;BME280;51709;54.912;8.316;2022-11-09T19:27:55;100597.19;;;10.64;83.11
65131;BME280;51709;54.912;8.316;2022-11-09T19:33:34;100609.72;;;10.75;82.89
65131;BME280;51709;54.912;8.316;2022-11-09T19:39:14;100615.38;;;10.88;83.15
65131;BME280;51709;54.912;8.316;2022-11-09T19:44:53;100618.72;;;10.91;83.23
65131;BME280;51709;54.912;8.316;2022-11-09T19:50:35;100635.59;;;11.00;83.28
65131;BME280;51709;54.912;8.316;2022-11-09T19:56:14;100645.72;;;11.06;83.40
65131;BME280;51709;54.912;8.316;2022-11-09T20:01:54;100661.06;;;11.09;83.14
65131;BME280;51709;54.912;8.316;2022-11-09T20:07:33;100668.53;;;11.19;83.09
65131;BME280;51709;54.912;8.316;2022-11-09T20:13:13;100672.56;;;11.28;83.06
65131;BME280;51709;54.912;8.316;2022-11-09T20:18:52;100671.72;;;11.27;82.99
65131;BME280;51709;54.912;8.316;2022-11-09T20:24:32;100692.28;;;11.27;83.21
65131;BME280;51709;54.912;8.316;2022-11-09T20:30:12;100693.31;;;11.20;83.32
65131;BME280;51709;54.912;8.316;2022-11-09T20:35:55;100690.44;;;10.98;83.52
65131;BME280;51709;54.912;8.316;2022-11-09T20:41:34;100703.78;;;10.77;83.75
65131;BME280;51709;54.912;8.316;2022-11-09T20:47:14;100726.97;;;10.74;83.49
65131;BME280;51709;54.912;8.316;2022-11-09T20:53:15;100725.09;;;10.81;83.46
65131;BME280;51709;54.912;8.316;2022-11-09T20:58:54;100733.56;;;10.85;83.15
65131;BME280;51709;54.912;8.316;2022-11-09T21:04:34;100754.81;;;10.91;83.18
65131;BME280;51709;54.912;8.316;2022-11-09T21:10:13;100755.63;;;10.92;83.01
65131;BME280;51709;54.912;8.316;2022-11-09T21:15:52;100764.97;;;10.94;82.98
65131;BME280;51709;54.912;8.316;2022-11-09T21:21:32;100762.34;;;10.98;82.86
65131;BME280;51709;54.912;8.316;2022-11-09T21:27:14;100764.50;;;11.15;82.62
65131;BME280;51709;54.912;8.316;2022-11-09T21:33:12;100775.16;;;11.34;82.10
65131;BME280;51709;54.912;8.316;2022-11-09T21:38:52;100781.63;;;11.50;81.84
65131;BME280;51709;54.912;8.316;2022-11-09T21:44:32;100792.59;;;11.57;81.97
65131;BME280;51709;54.912;8.316;2022-11-09T21:50:11;100813.78;;;11.65;81.56
65131;BME280;51709;54.912;8.316;2022-11-09T21:55:50;100814.84;;;11.58;81.68
65131;BME280;51709;54.912;8.316;2022-11-09T22:01:30;100826.78;;;11.59;81.10
65131;BME280;51709;54.912;8.316;2022-11-09T22:07:10;100825.91;;;11.60;80.48
65131;BME280;51709;54.912;8.316;2022-11-09T22:12:50;100827.47;;;11.31;80.71
65131;BME280;51709;54.912;8.316;2022-11-09T22:18:47;100834.16;;;11.38;80.39
65131;BME280;51709;54.912;8.316;2022-11-09T22:24:45;100833.97;;;11.46;80.14
65131;BME280;51709;54.912;8.316;2022-11-09T22:30:25;100841.91;;;11.35;80.66
65131;BME280;51709;54.912;8.316;2022-11-09T22:36:06;100852.13;;;11.40;80.52
65131;BME280;51709;54.912;8.316;2022-11-09T22:41:46;100869.94;;;11.46;80.33
65131;BME280;51709;54.912;8.316;2022-11-09T22:47:25;100870.69;;;11.50;80.28
65131;BME280;51709;54.912;8.316;2022-11-09T22:53:04;100875.78;;;11.53;79.76
65131;BME280;51709;54.912;8.316;2022-11-09T22:58:44;100887.00;;;11.50;79.73
65131;BME280;51709;54.912;8.316;2022-11-09T23:04:23;100894.72;;;11.49;79.61
65131;BME280;51709;54.912;8.316;2022-11-09T23:10:03;100908.44;;;11.49;79.78
65131;BME280;51709;54.912;8.316;2022-11-09T23:15:52;100921.41;;;11.43;79.65
65131;BME280;51709;54.912;8.316;2022-11-09T23:21:33;100917.13;;;11.42;79.48
65131;BME280;51709;54.912;8.316;2022-11-09T23:27:13;100945.38;;;11.44;79.33
65131;BME280;51709;54.912;8.316;2022-11-09T23:32:53;100941.06;;;11.46;79.43
65131;BME280;51709;54.912;8.316;2022-11-09T23:38:34;100949.66;;;11.43;79.33
65131;BME280;51709;54.912;8.316;2022-11-09T23:44:14;100969.28;;;11.47;79.13
65131;BME280;51709;54.912;8.316;2022-11-09T23:49:53;100978.66;;;11.50;79.05
65131;BME280;51709;54.912;8.316;2022-11-09T23:55:32;100992.34;;;11.50;78.72
